createdAt,value
2022-08-23T15:05:24.142Z,29.766
2022-08-23T15:12:57.058Z,29.764
2022-08-23T15:15:20.875Z,29.763
2022-08-23T15:20:17.975Z,29.767
2022-08-23T15:25:18.673Z,29.766
2022-08-23T15:30:18.672Z,29.768
2022-08-23T15:35:17.912Z,29.767
2022-08-23T15:40:17.867Z,29.769
2022-08-23T15:45:18.072Z,29.771
2022-08-23T15:50:18.266Z,29.772
2022-08-23T15:55:17.968Z,29.773
2022-08-23T16:00:17.978Z,29.773
2022-08-23T16:05:18.020Z,29.774
2022-08-23T16:10:17.988Z,29.775
2022-08-23T16:15:18.267Z,29.777
2022-08-23T16:20:17.946Z,29.780
2022-08-23T16:25:19.182Z,29.780
2022-08-23T16:30:18.005Z,29.776
2022-08-23T16:35:18.090Z,29.774
2022-08-23T16:40:17.963Z,29.775
2022-08-23T16:45:25.934Z,29.773
2022-08-23T16:50:18.002Z,29.771
2022-08-23T16:55:18.241Z,29.770
2022-08-23T17:00:18.188Z,29.770
2022-08-23T17:05:18.387Z,29.769
2022-08-23T17:10:18.130Z,29.768
2022-08-23T17:15:20.323Z,29.768
2022-08-23T17:20:18.066Z,29.769
2022-08-23T17:25:18.145Z,29.768
2022-08-23T17:30:18.320Z,29.771
2022-08-23T17:35:18.327Z,29.770
2022-08-23T17:40:21.057Z,29.766
2022-08-23T17:45:18.291Z,29.761
2022-08-23T17:50:18.103Z,29.762
2022-08-23T17:55:16.228Z,29.764
2022-08-23T18:00:16.147Z,29.763
2022-08-23T18:05:16.282Z,29.761
2022-08-23T18:10:16.593Z,29.760
2022-08-23T18:15:16.303Z,29.762
2022-08-23T18:20:16.201Z,29.758
2022-08-23T18:25:16.551Z,29.760
2022-08-23T18:30:16.431Z,29.760
2022-08-23T18:35:16.278Z,29.764
2022-08-23T18:40:16.333Z,29.761
2022-08-23T18:45:16.823Z,29.759
2022-08-23T18:50:16.256Z,29.758
2022-08-23T18:55:16.363Z,29.759
2022-08-23T19:00:16.366Z,29.759
2022-08-23T19:05:16.384Z,29.756
2022-08-23T19:10:20.356Z,29.754
2022-08-23T19:15:16.493Z,29.752
2022-08-23T19:20:16.610Z,29.751
2022-08-23T19:25:16.357Z,29.754
2022-08-23T19:30:17.439Z,29.754
2022-08-23T19:35:16.871Z,29.748
2022-08-23T19:40:16.394Z,29.746
2022-08-23T19:45:16.450Z,29.747
2022-08-23T19:50:16.384Z,29.744
2022-08-23T19:55:16.543Z,29.745
2022-08-23T20:00:19.576Z,29.739
2022-08-23T20:05:16.389Z,29.743
2022-08-23T20:10:16.395Z,29.740
2022-08-23T20:15:16.582Z,29.743
2022-08-23T20:20:16.436Z,29.751
2022-08-23T20:25:16.587Z,29.750
2022-08-23T20:30:16.715Z,29.748
2022-08-23T20:35:16.573Z,29.750
2022-08-23T20:40:16.652Z,29.749
2022-08-23T20:45:17.121Z,29.752
2022-08-23T20:50:16.453Z,29.753
2022-08-23T20:55:16.579Z,29.753
2022-08-23T21:00:16.622Z,29.751
2022-08-23T21:05:16.807Z,29.752
2022-08-23T21:10:16.709Z,29.747
2022-08-23T21:15:17.090Z,29.744
2022-08-23T21:20:17.274Z,29.740
2022-08-23T21:25:16.644Z,29.739
2022-08-23T21:30:16.664Z,29.737
2022-08-23T21:35:18.149Z,29.740
2022-08-23T21:40:16.663Z,29.740
2022-08-23T21:45:16.687Z,29.738
2022-08-23T21:50:16.591Z,29.731
2022-08-23T21:55:17.197Z,29.737
2022-08-23T22:00:16.698Z,29.738
2022-08-23T22:05:16.672Z,29.737
2022-08-23T22:10:16.874Z,29.744
2022-08-23T22:15:16.755Z,29.748
2022-08-23T22:20:16.615Z,29.745
2022-08-23T22:25:16.787Z,29.747
2022-08-23T22:30:17.002Z,29.748
2022-08-23T22:35:16.882Z,29.743
2022-08-23T22:40:17.024Z,29.750
2022-08-23T22:45:16.987Z,29.752
2022-08-23T22:50:16.667Z,29.747
2022-08-23T22:55:16.779Z,29.747
2022-08-23T23:00:16.749Z,29.750
2022-08-23T23:05:17.269Z,29.753
2022-08-23T23:10:18.096Z,29.747
2022-08-23T23:15:16.930Z,29.749
2022-08-23T23:20:16.830Z,29.745
2022-08-23T23:25:16.850Z,29.750
2022-08-23T23:30:16.912Z,29.749
2022-08-23T23:35:16.944Z,29.748
2022-08-23T23:40:16.945Z,29.749
2022-08-23T23:45:17.283Z,29.747
2022-08-23T23:50:16.768Z,29.744
2022-08-23T23:55:16.916Z,29.742
